Time;durP1;ratioP1;P1;durP2;ratioP2;P2;SDS_P1;SDS_P2;PMS_P1;PMS_P2;Temp;Humidity;BMP_temperature;BMP_pressure;BME280_temperature;BME280_humidity;BME280_pressure;Samples;Min_cycle;Max_cycle;Signal;HPM_P1;HPM_P2
2023/04/24 00:02:50;;;;;;;0.90;0.40;;;13.60;99.90;;;;;;10152814;28;20543;-62
2023/04/24 00:07:42;;;;;;;1.23;0.80;;;13.60;99.90;;;;;;10151517;28;20040;-62
2023/04/24 00:12:32;;;;;;;0.52;0.50;;;13.70;99.90;;;;;;10136954;28;20036;-64
2023/04/24 00:17:23;;;;;;;2.03;1.10;;;13.70;99.90;;;;;;10132948;28;20046;-62
2023/04/24 00:22:14;;;;;;;0.88;0.63;;;13.70;99.90;;;;;;10123033;28;20138;-64
2023/04/24 00:27:05;;;;;;;1.90;0.60;;;13.60;99.90;;;;;;10162090;28;20020;-62
2023/04/24 00:31:55;;;;;;;2.88;1.00;;;13.70;99.90;;;;;;10166667;28;20077;-66
2023/04/24 00:36:50;;;;;;;1.77;0.55;;;13.70;99.90;;;;;;10163255;28;20085;-64
2023/04/24 00:41:41;;;;;;;0.93;0.90;;;13.60;99.90;;;;;;10164473;28;20015;-62
2023/04/24 00:46:31;;;;;;;1.63;0.98;;;13.60;99.90;;;;;;10166903;28;20127;-62
2023/04/24 00:51:24;;;;;;;1.35;0.63;;;13.60;99.90;;;;;;10143460;28;20044;-61
2023/04/24 00:56:15;;;;;;;0.75;0.60;;;13.60;99.90;;;;;;10154070;28;20066;-64
2023/04/24 01:01:06;;;;;;;1.65;0.98;;;13.70;99.90;;;;;;10140830;28;20028;-61
2023/04/24 01:05:57;;;;;;;1.48;0.85;;;13.50;99.90;;;;;;10139472;28;20017;-61
2023/04/24 01:10:50;;;;;;;1.08;0.70;;;13.50;99.90;;;;;;10132095;28;20068;-61
2023/04/24 01:15:41;;;;;;;3.25;1.55;;;13.50;99.90;;;;;;10161862;28;20037;-62
2023/04/24 01:20:33;;;;;;;2.88;1.33;;;13.50;99.90;;;;;;10136549;28;20426;-65
2023/04/24 01:25:25;;;;;;;1.85;0.93;;;13.40;99.90;;;;;;10145350;28;20028;-66
2023/04/24 01:30:16;;;;;;;1.38;0.95;;;13.50;99.90;;;;;;10171640;28;20436;-66
2023/04/24 01:35:07;;;;;;;0.75;0.63;;;13.40;99.90;;;;;;10154915;28;20051;-64
2023/04/24 01:39:58;;;;;;;1.70;0.90;;;13.40;99.90;;;;;;10163664;28;20112;-64
2023/04/24 01:44:49;;;;;;;1.70;0.90;;;13.50;99.90;;;;;;10158041;28;20107;-66
2023/04/24 01:49:40;;;;;;;1.17;0.88;;;13.40;99.90;;;;;;10166237;28;20493;-67
2023/04/24 01:54:30;;;;;;;0.63;0.63;;;13.40;99.90;;;;;;10155163;28;20027;-63
2023/04/24 01:59:23;;;;;;;1.17;0.85;;;13.40;99.90;;;;;;10158098;28;20032;-66
2023/04/24 02:04:15;;;;;;;1.63;0.73;;;13.40;99.90;;;;;;10154620;28;20124;-67
2023/04/24 02:09:05;;;;;;;0.73;0.50;;;13.30;99.90;;;;;;10157388;28;20020;-66
2023/04/24 02:13:56;;;;;;;1.02;0.90;;;13.50;99.90;;;;;;10167798;28;20537;-65
2023/04/24 02:18:46;;;;;;;1.38;0.90;;;13.30;99.90;;;;;;10165548;28;20032;-65
2023/04/24 02:23:37;;;;;;;0.93;0.60;;;13.40;99.90;;;;;;10140977;28;20548;-68
2023/04/24 02:28:28;;;;;;;0.95;0.85;;;13.30;99.90;;;;;;10138780;28;20040;-67
2023/04/24 02:33:18;;;;;;;0.80;0.50;;;13.30;99.90;;;;;;10154430;28;20028;-67
2023/04/24 02:38:09;;;;;;;1.20;0.70;;;13.20;99.90;;;;;;10172816;28;20032;-66
2023/04/24 02:43:00;;;;;;;0.73;0.60;;;13.30;99.90;;;;;;10174129;28;20023;-66
2023/04/24 02:47:50;;;;;;;0.80;0.60;;;13.30;99.90;;;;;;10160357;28;20101;-66
2023/04/24 02:52:41;;;;;;;2.10;0.60;;;13.10;99.90;;;;;;10171547;28;20032;-63
2023/04/24 02:57:31;;;;;;;1.63;0.70;;;13.00;99.90;;;;;;10158934;28;20105;-63
2023/04/24 03:02:22;;;;;;;0.82;0.68;;;12.90;99.90;;;;;;10171501;28;20449;-61
2023/04/24 03:07:13;;;;;;;1.15;1.02;;;12.80;99.90;;;;;;10169114;28;20024;-64
2023/04/24 03:12:04;;;;;;;1.10;1.00;;;12.70;99.90;;;;;;10146334;28;20027;-64
2023/04/24 03:16:54;;;;;;;1.20;0.90;;;12.70;99.90;;;;;;10156704;28;20104;-66
2023/04/24 03:21:45;;;;;;;1.42;0.80;;;12.80;99.90;;;;;;10140727;28;20025;-67
2023/04/24 03:26:36;;;;;;;1.38;0.88;;;12.70;99.90;;;;;;10164817;28;20112;-65
2023/04/24 03:31:26;;;;;;;1.90;0.70;;;12.90;99.90;;;;;;10169552;28;20051;-67
2023/04/24 03:36:18;;;;;;;1.95;0.90;;;12.80;99.90;;;;;;10169057;28;20032;-66
2023/04/24 03:41:09;;;;;;;1.20;0.77;;;12.80;99.90;;;;;;10163127;28;20552;-64
2023/04/24 03:46:00;;;;;;;1.50;0.82;;;12.60;99.90;;;;;;10159321;28;20020;-66
2023/04/24 03:50:51;;;;;;;1.92;0.95;;;12.60;99.90;;;;;;10169525;28;20128;-65
2023/04/24 03:55:41;;;;;;;2.38;1.30;;;12.50;99.90;;;;;;10155007;28;20043;-63
2023/04/24 04:00:32;;;;;;;0.75;0.75;;;12.40;99.90;;;;;;10154602;28;20032;-63
2023/04/24 04:05:23;;;;;;;1.02;0.88;;;12.50;99.90;;;;;;10168474;28;20021;-62
2023/04/24 04:10:14;;;;;;;1.00;0.63;;;12.50;99.90;;;;;;10144132;28;20025;-64
2023/04/24 04:15:06;;;;;;;2.35;0.85;;;12.40;99.90;;;;;;10165902;28;20024;-62
2023/04/24 04:19:57;;;;;;;2.10;0.82;;;12.50;99.90;;;;;;10168148;28;20455;-66
2023/04/24 04:24:47;;;;;;;1.30;0.60;;;12.50;99.90;;;;;;10140922;28;20028;-61
2023/04/24 04:29:39;;;;;;;0.68;0.68;;;12.50;99.90;;;;;;10161713;28;20024;-64
2023/04/24 04:34:31;;;;;;;0.95;0.60;;;12.60;99.90;;;;;;10165106;28;20452;-64
2023/04/24 04:39:21;;;;;;;1.60;1.10;;;12.70;99.90;;;;;;10155998;28;20124;-62
2023/04/24 04:44:12;;;;;;;1.05;0.73;;;12.60;99.90;;;;;;10165260;28;20104;-61
2023/04/24 04:49:03;;;;;;;0.65;0.63;;;12.80;99.90;;;;;;10166485;28;20151;-61
2023/04/24 04:53:54;;;;;;;1.17;0.90;;;12.70;99.90;;;;;;10155156;28;20016;-60
2023/04/24 04:58:44;;;;;;;2.30;0.85;;;12.70;99.90;;;;;;10134600;28;20031;-62
2023/04/24 05:03:35;;;;;;;1.17;0.70;;;12.80;99.90;;;;;;10158864;28;20032;-61
2023/04/24 05:08:26;;;;;;;1.00;0.70;;;12.90;99.90;;;;;;10142805;28;20033;-61
2023/04/24 05:13:17;;;;;;;1.70;0.85;;;12.90;99.90;;;;;;10143158;28;20066;-63
2023/04/24 05:18:07;;;;;;;3.08;0.80;;;13.00;99.90;;;;;;10143410;28;20379;-60
2023/04/24 05:22:58;;;;;;;3.45;0.90;;;12.90;99.90;;;;;;10131661;28;20046;-62
2023/04/24 05:27:48;;;;;;;1.60;0.88;;;12.90;99.90;;;;;;10164280;28;20410;-61
2023/04/24 05:32:39;;;;;;;1.50;0.77;;;12.80;99.90;;;;;;10156220;28;20040;-64
2023/04/24 05:37:30;;;;;;;3.03;1.00;;;12.80;99.90;;;;;;10160998;28;20036;-61
2023/04/24 05:42:20;;;;;;;2.88;0.90;;;12.50;99.90;;;;;;10151793;28;20024;-62
2023/04/24 05:47:11;;;;;;;2.70;0.80;;;12.50;99.90;;;;;;10159828;28;20070;-62
2023/04/24 05:52:03;;;;;;;3.88;1.02;;;12.50;99.90;;;;;;10156656;28;20031;-62
2023/04/24 05:56:55;;;;;;;1.27;1.00;;;12.50;99.90;;;;;;10172207;28;20144;-60
2023/04/24 06:01:45;;;;;;;4.00;1.50;;;12.60;99.90;;;;;;10157209;28;20112;-63
2023/04/24 06:06:36;;;;;;;1.45;1.13;;;12.50;99.90;;;;;;10168463;28;20111;-64
2023/04/24 06:11:27;;;;;;;2.63;1.10;;;12.50;99.90;;;;;;10164374;28;20025;-61
2023/04/24 06:16:17;;;;;;;2.10;1.10;;;12.50;99.90;;;;;;10166501;28;20035;-62
2023/04/24 06:21:08;;;;;;;2.55;1.20;;;12.50;99.90;;;;;;10147295;28;20033;-61
2023/04/24 06:25:59;;;;;;;2.97;1.58;;;12.60;99.90;;;;;;10171599;28;20035;-64
2023/04/24 06:30:50;;;;;;;1.48;1.05;;;12.70;99.90;;;;;;10140738;28;20485;-65
2023/04/24 06:35:40;;;;;;;6.80;1.17;;;12.90;99.90;;;;;;10165934;28;20115;-62
2023/04/24 06:40:31;;;;;;;2.50;1.00;;;13.10;99.90;;;;;;10183943;28;20036;-63
2023/04/24 06:45:22;;;;;;;1.67;0.90;;;13.20;99.90;;;;;;10148739;28;20020;-62
2023/04/24 06:50:12;;;;;;;1.65;0.90;;;13.20;99.90;;;;;;10150608;28;20134;-63
2023/04/24 06:55:04;;;;;;;1.33;0.77;;;13.20;99.90;;;;;;10130382;28;20084;-63
2023/04/24 06:59:55;;;;;;;2.47;1.17;;;13.20;99.90;;;;;;10165288;28;20070;-63
2023/04/24 07:04:47;;;;;;;1.52;1.13;;;13.30;99.90;;;;;;10164423;28;20028;-61
2023/04/24 07:09:40;;;;;;;1.30;0.93;;;13.20;99.90;;;;;;10146333;28;20408;-62
2023/04/24 07:14:31;;;;;;;3.22;1.08;;;13.20;99.90;;;;;;10183933;28;20035;-62
2023/04/24 07:19:21;;;;;;;4.38;1.20;;;13.30;99.90;;;;;;10168044;28;20048;-61
2023/04/24 07:24:12;;;;;;;2.17;0.80;;;13.10;99.90;;;;;;10148064;28;20029;-63
2023/04/24 07:29:03;;;;;;;1.55;1.00;;;12.90;99.90;;;;;;10164426;28;20067;-63
2023/04/24 07:33:54;;;;;;;3.10;1.05;;;12.90;99.90;;;;;;10166401;28;20095;-62
2023/04/24 07:38:48;;;;;;;2.63;1.13;;;12.80;99.90;;;;;;10183937;28;20046;-63
2023/04/24 07:43:38;;;;;;;2.88;1.10;;;12.90;99.70;;;;;;10164000;28;20024;-63
2023/04/24 07:48:29;;;;;;;5.55;1.58;;;13.10;99.70;;;;;;10176712;28;20541;-63
2023/04/24 07:53:20;;;;;;;1.08;0.80;;;13.30;99.30;;;;;;10142910;28;20025;-67
2023/04/24 07:58:10;;;;;;;1.17;0.80;;;13.20;99.10;;;;;;10142806;28;20044;-64
2023/04/24 08:03:01;;;;;;;1.85;0.73;;;13.10;98.90;;;;;;10164344;28;20052;-63
2023/04/24 08:07:52;;;;;;;3.72;1.02;;;13.10;98.60;;;;;;10140728;28;20020;-64
2023/04/24 08:12:43;;;;;;;1.75;0.88;;;13.10;98.30;;;;;;10166125;28;20481;-66
2023/04/24 08:17:35;;;;;;;2.42;0.95;;;13.00;98.30;;;;;;10152799;28;20040;-63
2023/04/24 08:22:26;;;;;;;1.48;0.80;;;12.80;98.20;;;;;;10133121;28;20024;-61
2023/04/24 08:27:16;;;;;;;0.85;0.85;;;12.90;98.00;;;;;;10156853;28;20032;-63
2023/04/24 08:32:07;;;;;;;1.48;1.10;;;13.10;97.90;;;;;;10148805;28;20031;-63
2023/04/24 08:36:58;;;;;;;1.20;0.75;;;12.90;97.90;;;;;;10140318;28;20569;-66
2023/04/24 08:41:49;;;;;;;0.98;0.75;;;12.90;97.90;;;;;;10140053;28;20020;-67
2023/04/24 08:46:40;;;;;;;1.88;0.75;;;12.80;98.00;;;;;;10149723;28;20112;-67
2023/04/24 08:51:31;;;;;;;1.65;1.00;;;13.00;98.00;;;;;;10139060;28;20185;-62
2023/04/24 08:56:23;;;;;;;0.93;0.82;;;13.00;98.30;;;;;;10142490;28;20439;-68
2023/04/24 09:01:15;;;;;;;1.58;0.95;;;13.10;98.20;;;;;;10149215;28;20036;-62
2023/04/24 09:06:07;;;;;;;1.27;0.90;;;13.30;98.30;;;;;;10140134;28;20020;-64
2023/04/24 09:10:58;;;;;;;1.15;0.90;;;13.30;98.40;;;;;;10137080;28;20024;-62
2023/04/24 09:15:49;;;;;;;2.17;0.90;;;13.00;98.60;;;;;;10147338;28;20533;-62
2023/04/24 09:21:02;;;;;;;2.00;1.00;;;13.20;98.70;;;;;;10117139;28;20028;-62
2023/04/24 09:25:55;;;;;;;1.50;0.75;;;13.20;98.60;;;;;;10152877;28;20008;-62
2023/04/24 09:31:01;;;;;;;2.85;1.15;;;13.20;98.70;;;;;;10152937;28;20024;-60
2023/04/24 09:35:52;;;;;;;1.17;0.90;;;13.20;98.80;;;;;;10160709;28;20031;-61
2023/04/24 09:40:42;;;;;;;1.60;1.20;;;13.30;98.70;;;;;;10166506;28;20035;-63
2023/04/24 09:45:37;;;;;;;1.30;0.90;;;13.30;98.60;;;;;;10160480;28;20020;-66
2023/04/24 09:50:37;;;;;;;1.33;0.77;;;13.30;98.60;;;;;;10156547;28;20057;-66
2023/04/24 09:55:27;;;;;;;2.45;1.00;;;13.70;98.50;;;;;;10162250;28;20029;-62
2023/04/24 10:00:22;;;;;;;1.45;0.65;;;14.00;98.40;;;;;;10163765;28;20173;-63
2023/04/24 10:05:13;;;;;;;2.13;0.75;;;13.90;98.40;;;;;;10155263;28;20024;-64
2023/04/24 10:10:04;;;;;;;1.25;0.73;;;13.60;98.50;;;;;;10144877;28;20029;-61
2023/04/24 10:14:55;;;;;;;1.20;1.10;;;13.60;98.50;;;;;;10161211;28;20099;-66
2023/04/24 10:19:46;;;;;;;1.23;0.90;;;13.30;98.60;;;;;;10158230;28;20037;-61
2023/04/24 10:24:38;;;;;;;1.67;0.70;;;13.20;98.60;;;;;;10140366;28;20016;-63
2023/04/24 10:29:31;;;;;;;1.20;1.00;;;13.40;98.50;;;;;;10151236;28;20030;-66
2023/04/24 10:34:23;;;;;;;1.17;0.90;;;13.50;98.60;;;;;;10155228;28;20381;-67
2023/04/24 10:39:15;;;;;;;4.88;1.67;;;13.80;98.20;;;;;;10164752;28;20052;-67
2023/04/24 10:44:11;;;;;;;1.20;1.10;;;14.20;98.20;;;;;;10160474;28;20454;-64
2023/04/24 10:49:08;;;;;;;1.25;0.80;;;14.10;98.00;;;;;;10163535;28;20083;-63
2023/04/24 10:53:59;;;;;;;2.15;0.90;;;14.20;97.90;;;;;;10170782;28;20473;-65
2023/04/24 10:58:52;;;;;;;2.50;0.90;;;14.10;97.90;;;;;;10141790;28;20083;-62
2023/04/24 11:03:55;;;;;;;1.85;1.25;;;14.30;97.70;;;;;;10159011;28;20040;-62
2023/04/24 11:08:46;;;;;;;1.08;0.80;;;14.30;97.80;;;;;;10149534;28;20418;-67
2023/04/24 11:13:55;;;;;;;1.83;0.80;;;14.30;97.70;;;;;;10155752;28;20029;-67
2023/04/24 11:18:51;;;;;;;1.05;0.90;;;14.20;97.60;;;;;;10153670;28;20371;-65
2023/04/24 11:23:42;;;;;;;2.20;1.38;;;14.20;97.70;;;;;;10145437;28;20385;-61
2023/04/24 11:28:32;;;;;;;1.00;0.80;;;14.00;97.80;;;;;;10165136;28;20024;-63
2023/04/24 11:33:23;;;;;;;3.83;1.40;;;13.60;97.90;;;;;;10170160;28;20020;-61
2023/04/24 11:38:16;;;;;;;1.38;1.08;;;13.50;97.90;;;;;;10156842;28;20049;-65
2023/04/24 11:43:09;;;;;;;3.53;1.50;;;13.50;97.90;;;;;;10175152;28;20024;-66
2023/04/24 11:48:00;;;;;;;1.55;1.27;;;13.60;97.80;;;;;;10169117;28;20052;-62
2023/04/24 11:52:51;;;;;;;2.58;1.58;;;13.50;97.60;;;;;;10157125;28;20029;-65
2023/04/24 11:57:46;;;;;;;2.08;1.25;;;13.50;97.50;;;;;;10154326;28;20028;-65
2023/04/24 12:02:36;;;;;;;2.40;1.15;;;13.60;97.40;;;;;;10166856;28;20036;-65
2023/04/24 12:07:27;;;;;;;1.30;1.20;;;13.80;97.30;;;;;;10128995;28;20029;-66
2023/04/24 12:12:18;;;;;;;2.83;1.58;;;14.00;97.30;;;;;;10135025;28;20017;-66
2023/04/24 12:17:09;;;;;;;1.33;0.98;;;14.00;97.10;;;;;;10169379;28;20037;-65
2023/04/24 12:22:05;;;;;;;2.42;1.10;;;14.20;96.90;;;;;;10141939;28;20032;-66
2023/04/24 12:26:56;;;;;;;4.45;1.48;;;14.30;97.00;;;;;;10160302;28;20056;-61
2023/04/24 12:31:46;;;;;;;1.77;1.38;;;14.20;96.80;;;;;;10143054;28;20016;-65
2023/04/24 12:36:37;;;;;;;3.17;1.95;;;14.10;96.80;;;;;;10140669;28;20394;-62
2023/04/24 12:41:30;;;;;;;1.45;1.10;;;14.10;96.80;;;;;;10120095;28;20021;-68
2023/04/24 12:46:21;;;;;;;3.35;1.20;;;14.30;96.70;;;;;;10151756;28;20406;-64
2023/04/24 12:51:12;;;;;;;2.25;1.20;;;14.50;96.40;;;;;;10139944;28;20055;-64
2023/04/24 12:56:03;;;;;;;3.22;1.20;;;14.20;96.50;;;;;;10140720;28;20032;-67
2023/04/24 13:00:54;;;;;;;1.50;1.10;;;13.90;96.60;;;;;;10152055;28;20028;-67
2023/04/24 13:05:44;;;;;;;2.25;1.40;;;13.80;96.70;;;;;;10153260;28;20020;-68
2023/04/24 13:10:35;;;;;;;1.30;1.05;;;14.00;96.50;;;;;;10157563;28;20032;-67
2023/04/24 13:15:26;;;;;;;0.98;0.52;;;14.40;96.30;;;;;;10138990;28;20020;-63
2023/04/24 13:20:17;;;;;;;1.33;0.88;;;14.50;96.30;;;;;;10138581;28;20123;-68
2023/04/24 13:25:08;;;;;;;1.83;1.20;;;14.60;96.30;;;;;;10147343;28;20024;-65
2023/04/24 13:29:59;;;;;;;2.45;1.13;;;14.40;96.30;;;;;;10160262;28;20046;-62
2023/04/24 13:34:50;;;;;;;0.95;0.90;;;15.20;96.10;;;;;;10166292;28;20032;-61
2023/04/24 13:39:41;;;;;;;1.20;0.95;;;15.20;95.90;;;;;;10161906;28;20527;-63
2023/04/24 13:44:32;;;;;;;1.95;1.02;;;15.80;95.70;;;;;;10161563;28;20025;-62
2023/04/24 13:49:26;;;;;;;2.35;1.23;;;17.40;94.80;;;;;;10165226;28;20481;-60
2023/04/24 13:54:17;;;;;;;1.23;1.00;;;16.30;95.20;;;;;;10142706;28;20020;-62
2023/04/24 13:59:08;;;;;;;1.58;1.30;;;15.70;95.70;;;;;;10151752;28;20781;-61
2023/04/24 14:03:59;;;;;;;1.05;0.88;;;16.00;95.40;;;;;;10152520;28;20048;-63
2023/04/24 14:08:50;;;;;;;2.53;1.00;;;16.40;95.00;;;;;;10162131;28;20024;-64
2023/04/24 14:13:42;;;;;;;2.15;1.25;;;18.10;93.70;;;;;;10139074;28;20371;-62
2023/04/24 14:18:32;;;;;;;1.77;0.85;;;17.20;94.10;;;;;;10164865;28;20040;-65
2023/04/24 14:23:23;;;;;;;0.88;0.80;;;18.00;94.00;;;;;;10165520;28;20377;-62
2023/04/24 14:28:14;;;;;;;1.50;0.90;;;17.50;93.80;;;;;;10180349;28;20035;-65
2023/04/24 14:33:05;;;;;;;1.98;0.88;;;16.40;94.10;;;;;;10186084;28;20021;-62
2023/04/24 14:37:55;;;;;;;0.93;0.80;;;15.50;94.10;;;;;;10160332;28;20032;-67
2023/04/24 14:42:46;;;;;;;1.27;0.98;;;15.00;94.00;;;;;;10151464;28;20084;-67
2023/04/24 14:47:37;;;;;;;2.15;0.68;;;14.80;93.70;;;;;;10162456;28;20426;-66
2023/04/24 14:52:28;;;;;;;2.30;0.93;;;14.90;93.50;;;;;;10141429;28;20017;-61
2023/04/24 14:57:18;;;;;;;4.18;1.25;;;15.20;93.50;;;;;;10148968;28;20130;-66
2023/04/24 15:02:09;;;;;;;1.90;1.00;;;15.40;93.80;;;;;;10142011;28;20382;-65
2023/04/24 15:07:00;;;;;;;2.15;1.20;;;15.90;93.70;;;;;;10155057;28;20024;-65
2023/04/24 15:11:51;;;;;;;2.53;1.30;;;17.20;93.50;;;;;;10156848;28;20016;-67
2023/04/24 15:16:41;;;;;;;2.80;1.33;;;19.80;92.80;;;;;;10184479;28;20119;-63
2023/04/24 15:21:32;;;;;;;1.25;0.77;;;20.80;92.20;;;;;;10135860;28;20446;-65
2023/04/24 15:26:24;;;;;;;1.90;1.10;;;17.60;93.30;;;;;;10155419;28;20299;-63
2023/04/24 15:31:15;;;;;;;2.38;1.00;;;16.50;93.80;;;;;;10155666;28;20023;-65
2023/04/24 15:36:06;;;;;;;2.83;0.90;;;16.00;93.60;;;;;;10162610;28;20028;-59
2023/04/24 15:40:56;;;;;;;0.90;0.85;;;16.20;93.30;;;;;;10165668;28;20076;-63
2023/04/24 15:45:49;;;;;;;2.85;1.10;;;16.60;92.80;;;;;;10163092;28;20024;-62
2023/04/24 15:50:40;;;;;;;2.90;1.23;;;17.80;91.90;;;;;;10166539;28;20184;-60
2023/04/24 15:55:30;;;;;;;0.98;0.90;;;16.50;92.50;;;;;;10158054;28;20259;-66
2023/04/24 16:00:22;;;;;;;1.65;0.95;;;15.90;92.80;;;;;;10165337;28;20423;-59
2023/04/24 16:05:12;;;;;;;1.08;0.90;;;18.50;91.00;;;;;;10158415;28;20021;-60
2023/04/24 16:10:03;;;;;;;3.35;1.35;;;17.40;91.40;;;;;;10144755;28;20017;-61
2023/04/24 16:14:54;;;;;;;1.35;0.95;;;16.00;92.40;;;;;;10170409;28;20024;-61
2023/04/24 16:19:45;;;;;;;2.25;1.15;;;15.40;92.80;;;;;;10158849;28;20409;-62
2023/04/24 16:24:35;;;;;;;2.70;1.33;;;15.30;92.90;;;;;;10140813;28;20085;-62
2023/04/24 16:29:27;;;;;;;1.60;0.77;;;14.90;93.20;;;;;;10161043;28;20213;-63
2023/04/24 16:34:17;;;;;;;1.02;0.65;;;14.70;93.40;;;;;;10158303;28;20044;-62
2023/04/24 16:39:08;;;;;;;1.48;0.80;;;17.40;92.10;;;;;;10153324;28;20529;-62
2023/04/24 16:43:59;;;;;;;1.33;1.02;;;22.20;87.80;;;;;;10160202;28;20082;-62
2023/04/24 16:48:50;;;;;;;1.38;0.68;;;24.00;85.00;;;;;;10153397;28;20052;-64
2023/04/24 16:53:40;;;;;;;2.30;1.08;;;24.80;83.70;;;;;;10161197;28;20070;-61
2023/04/24 16:58:31;;;;;;;1.90;1.00;;;24.70;83.40;;;;;;10157945;28;20047;-60
2023/04/24 17:03:22;;;;;;;2.22;1.00;;;23.10;83.90;;;;;;10163727;28;20020;-64
2023/04/24 17:08:13;;;;;;;2.63;1.13;;;20.20;86.90;;;;;;10136892;28;20449;-64
2023/04/24 17:13:03;;;;;;;1.80;1.30;;;17.50;89.90;;;;;;10160215;28;20031;-61
2023/04/24 17:17:55;;;;;;;1.30;0.98;;;16.50;90.40;;;;;;10158656;28;20412;-62
2023/04/24 17:22:46;;;;;;;2.58;1.13;;;16.10;90.40;;;;;;10141085;28;20020;-62
2023/04/24 17:27:36;;;;;;;1.92;1.05;;;15.80;90.50;;;;;;10158376;28;20038;-62
2023/04/24 17:32:27;;;;;;;1.20;1.00;;;15.70;90.40;;;;;;10142357;28;20023;-61
2023/04/24 17:37:21;;;;;;;1.10;0.80;;;15.50;90.60;;;;;;10165722;28;20043;-62
2023/04/24 17:42:12;;;;;;;2.40;1.38;;;15.30;90.80;;;;;;10168444;28;20581;-63
2023/04/24 17:47:03;;;;;;;2.90;0.88;;;15.00;91.00;;;;;;10152225;28;20052;-62
2023/04/24 17:51:54;;;;;;;1.95;1.38;;;14.80;91.20;;;;;;10161320;28;20082;-63
2023/04/24 17:56:45;;;;;;;2.10;1.88;;;14.70;91.40;;;;;;10157523;28;20045;-62
2023/04/24 18:01:35;;;;;;;1.75;1.50;;;14.60;91.50;;;;;;10164976;28;20036;-65
2023/04/24 18:06:27;;;;;;;2.13;1.30;;;14.50;91.60;;;;;;10173414;28;20417;-62
2023/04/24 18:11:18;;;;;;;1.70;1.00;;;14.30;91.70;;;;;;10151363;28;20076;-63
2023/04/24 18:16:09;;;;;;;1.27;1.10;;;14.20;92.00;;;;;;10149181;28;20032;-63
2023/04/24 18:21:00;;;;;;;1.42;1.08;;;14.00;92.20;;;;;;10157908;28;20032;-63
2023/04/24 18:25:51;;;;;;;2.35;1.60;;;14.10;92.30;;;;;;10141639;28;20518;-63
2023/04/24 18:30:42;;;;;;;1.75;1.38;;;14.00;92.30;;;;;;10166633;28;20027;-66
2023/04/24 18:35:32;;;;;;;3.33;0.80;;;14.10;92.20;;;;;;10170499;28;20035;-63
2023/04/24 18:40:24;;;;;;;1.80;0.95;;;14.10;92.10;;;;;;10163441;28;20047;-65
2023/04/24 18:45:14;;;;;;;1.67;1.30;;;14.10;92.20;;;;;;10167359;28;20505;-63
2023/04/24 18:50:06;;;;;;;2.70;1.23;;;14.10;92.20;;;;;;10166221;28;20057;-63
2023/04/24 18:54:56;;;;;;;3.95;1.40;;;14.20;92.10;;;;;;10159615;28;20082;-63
2023/04/24 18:59:47;;;;;;;2.45;1.40;;;14.10;92.30;;;;;;10157360;28;20103;-62
2023/04/24 19:04:37;;;;;;;2.28;1.17;;;14.00;92.30;;;;;;10162013;28;20084;-63
2023/04/24 19:09:28;;;;;;;2.33;1.17;;;14.10;92.30;;;;;;10159727;28;20570;-63
2023/04/24 19:14:21;;;;;;;4.28;1.20;;;14.00;92.50;;;;;;10166794;28;20021;-63
2023/04/24 19:19:12;;;;;;;2.28;1.50;;;13.90;92.50;;;;;;10171002;28;20383;-64
2023/04/24 19:24:02;;;;;;;5.93;1.58;;;13.90;92.60;;;;;;10144553;28;20111;-67
2023/04/24 19:28:56;;;;;;;1.98;1.40;;;13.80;92.80;;;;;;10164444;28;20100;-62
2023/04/24 19:33:47;;;;;;;1.80;1.60;;;13.70;93.00;;;;;;10143853;28;20028;-62
2023/04/24 19:38:39;;;;;;;2.17;1.67;;;13.80;93.00;;;;;;10121214;28;20036;-63
2023/04/24 19:43:30;;;;;;;1.90;1.33;;;13.80;93.00;;;;;;10173457;28;20024;-64
2023/04/24 19:48:20;;;;;;;2.45;1.42;;;13.80;93.10;;;;;;10147102;28;20126;-62
2023/04/24 19:53:11;;;;;;;2.17;1.70;;;13.70;93.20;;;;;;10157509;28;20111;-62
2023/04/24 19:58:02;;;;;;;2.47;1.80;;;13.80;93.20;;;;;;10136877;28;20036;-62
2023/04/24 20:02:54;;;;;;;3.72;1.65;;;13.90;93.30;;;;;;10166318;28;20074;-64
2023/04/24 20:07:45;;;;;;;2.63;1.70;;;13.80;93.50;;;;;;10134400;28;20497;-61
2023/04/24 20:12:36;;;;;;;2.80;1.60;;;13.80;93.50;;;;;;10134209;28;20016;-64
2023/04/24 20:17:26;;;;;;;5.00;1.20;;;13.80;93.50;;;;;;10136409;28;20043;-63
2023/04/24 20:22:17;;;;;;;3.85;1.70;;;13.70;93.50;;;;;;10127473;28;20509;-66
2023/04/24 20:27:08;;;;;;;3.10;1.70;;;13.70;93.80;;;;;;10166978;28;20032;-65
2023/04/24 20:31:58;;;;;;;1.98;1.30;;;13.60;93.80;;;;;;10154043;28;20095;-66
2023/04/24 20:36:49;;;;;;;4.80;1.65;;;13.60;93.80;;;;;;10159307;28;20559;-65
2023/04/24 20:41:39;;;;;;;3.97;1.75;;;13.60;93.90;;;;;;10154605;28;20012;-67
2023/04/24 20:46:30;;;;;;;3.20;1.58;;;13.50;94.10;;;;;;10165639;28;20027;-65
2023/04/24 20:51:21;;;;;;;5.32;1.73;;;13.50;94.10;;;;;;10164127;28;20059;-63
2023/04/24 20:56:12;;;;;;;3.25;1.40;;;13.60;94.10;;;;;;10164633;28;20361;-67
2023/04/24 21:01:02;;;;;;;2.78;1.45;;;13.60;94.20;;;;;;10146566;28;20395;-68
2023/04/24 21:05:53;;;;;;;2.40;1.30;;;13.50;94.30;;;;;;10161926;28;20381;-66
2023/04/24 21:10:44;;;;;;;6.72;1.80;;;13.50;94.50;;;;;;10163628;28;20032;-66
2023/04/24 21:15:34;;;;;;;2.35;1.58;;;13.60;94.40;;;;;;10139732;28;20104;-64
2023/04/24 21:20:25;;;;;;;2.15;1.38;;;13.50;94.40;;;;;;10137102;28;20478;-63
2023/04/24 21:25:16;;;;;;;2.63;1.70;;;13.50;94.60;;;;;;10155027;28;20382;-65
2023/04/24 21:30:07;;;;;;;2.90;1.30;;;13.40;94.60;;;;;;10121716;28;20087;-66
2023/04/24 21:34:58;;;;;;;1.95;1.75;;;13.40;94.70;;;;;;10154292;28;20173;-65
2023/04/24 21:39:50;;;;;;;2.47;1.55;;;13.30;94.70;;;;;;10168708;28;20039;-62
2023/04/24 21:44:41;;;;;;;2.65;1.75;;;13.30;94.70;;;;;;10159965;28;20024;-63
2023/04/24 21:49:31;;;;;;;1.45;1.20;;;13.30;94.70;;;;;;10152152;28;20176;-65
2023/04/24 21:54:22;;;;;;;2.72;1.60;;;13.20;94.80;;;;;;10157682;28;20035;-62
2023/04/24 21:59:12;;;;;;;2.65;1.23;;;13.10;94.90;;;;;;10150855;28;20036;-62
2023/04/24 22:04:05;;;;;;;2.72;1.25;;;13.20;94.90;;;;;;10134329;28;20436;-63
2023/04/24 22:08:56;;;;;;;2.10;1.23;;;13.20;94.80;;;;;;10163939;28;20512;-63
2023/04/24 22:13:47;;;;;;;3.25;1.42;;;13.20;94.90;;;;;;10150929;28;20035;-64
2023/04/24 22:18:39;;;;;;;1.80;1.70;;;13.00;94.90;;;;;;10155209;28;20048;-67
2023/04/24 22:23:29;;;;;;;2.88;1.50;;;13.10;94.90;;;;;;10154241;28;20027;-66
2023/04/24 22:28:20;;;;;;;2.00;1.33;;;13.10;94.90;;;;;;10159350;28;20028;-67
2023/04/24 22:33:11;;;;;;;2.35;1.23;;;13.00;94.90;;;;;;10154398;28;20086;-67
2023/04/24 22:38:02;;;;;;;2.35;1.20;;;12.90;95.00;;;;;;10163978;28;20028;-62
2023/04/24 22:42:53;;;;;;;3.13;1.42;;;12.80;95.00;;;;;;10157821;28;20497;-64
2023/04/24 22:47:43;;;;;;;3.60;1.08;;;12.60;95.10;;;;;;10156577;28;20048;-63
2023/04/24 22:52:34;;;;;;;5.15;1.45;;;12.50;95.20;;;;;;10137622;28;20479;-65
2023/04/24 22:57:25;;;;;;;2.25;1.25;;;12.50;95.20;;;;;;10141170;28;20032;-62
2023/04/24 23:02:15;;;;;;;1.98;1.25;;;12.40;95.30;;;;;;10182971;28;20021;-61
2023/04/24 23:07:06;;;;;;;3.30;1.10;;;12.30;95.40;;;;;;10133028;28;20036;-62
2023/04/24 23:11:57;;;;;;;1.60;1.00;;;12.30;95.30;;;;;;10154277;28;20534;-63
2023/04/24 23:16:47;;;;;;;3.38;1.05;;;12.40;95.30;;;;;;10161871;28;20040;-61
2023/04/24 23:21:38;;;;;;;2.78;1.08;;;12.30;95.30;;;;;;10131271;28;20082;-63
2023/04/24 23:26:28;;;;;;;2.38;1.95;;;12.30;95.20;;;;;;10163481;28;20382;-67
2023/04/24 23:31:19;;;;;;;1.27;0.85;;;12.40;95.20;;;;;;10175689;28;20028;-66
2023/04/24 23:36:10;;;;;;;1.13;0.88;;;12.30;95.20;;;;;;10157994;28;20036;-62
2023/04/24 23:41:01;;;;;;;3.38;1.27;;;12.40;95.10;;;;;;10165400;28;20028;-62
2023/04/24 23:45:51;;;;;;;2.67;1.20;;;12.30;95.30;;;;;;10161980;28;20029;-64
2023/04/24 23:50:42;;;;;;;1.50;1.00;;;12.30;95.30;;;;;;10167006;28;20065;-68
2023/04/24 23:55:33;;;;;;;3.38;1.35;;;12.30;95.30;;;;;;10156538;28;20397;-65
